sensor_id;sensor_type;location;lat;lon;timestamp;pressure;altitude;pressure_sealevel;temperature;humidity
2184;BME280;1098;48.940;8.962;2023-02-28T00:02:24;99272.06;;;-0.45;100.00
2184;BME280;1098;48.940;8.962;2023-02-28T00:04:53;99269.53;;;-0.47;100.00
2184;BME280;1098;48.940;8.962;2023-02-28T00:07:27;99270.66;;;-0.30;100.00
2184;BME280;1098;48.940;8.962;2023-02-28T00:09:56;99271.63;;;-0.41;100.00
2184;BME280;1098;48.940;8.962;2023-02-28T00:12:24;99267.97;;;-0.40;100.00
2184;BME280;1098;48.940;8.962;2023-02-28T00:14:55;99269.25;;;-0.34;100.00
2184;BME280;1098;48.940;8.962;2023-02-28T00:17:25;99255.69;;;-0.41;100.00
2184;BME280;1098;48.940;8.962;2023-02-28T00:19:53;99257.66;;;-0.33;100.00
2184;BME280;1098;48.940;8.962;2023-02-28T00:22:21;99256.81;;;-0.33;100.00
2184;BME280;1098;48.940;8.962;2023-02-28T00:24:50;99261.84;;;-0.50;100.00
2184;BME280;1098;48.940;8.962;2023-02-28T00:27:18;99261.00;;;-0.41;100.00
2184;BME280;1098;48.940;8.962;2023-02-28T00:29:46;99263.94;;;-0.63;100.00
2184;BME280;1098;48.940;8.962;2023-02-28T00:32:15;99266.97;;;-0.58;100.00
2184;BME280;1098;48.940;8.962;2023-02-28T00:34:45;99259.03;;;-0.39;100.00
2184;BME280;1098;48.940;8.962;2023-02-28T00:37:14;99258.66;;;-0.44;100.00
2184;BME280;1098;48.940;8.962;2023-02-28T00:39:43;99257.91;;;-0.55;100.00
2184;BME280;1098;48.940;8.962;2023-02-28T00:42:11;99260.44;;;-0.63;100.00
2184;BME280;1098;48.940;8.962;2023-02-28T00:44:40;99257.34;;;-0.68;100.00
2184;BME280;1098;48.940;8.962;2023-02-28T00:47:11;99252.56;;;-0.75;100.00
2184;BME280;1098;48.940;8.962;2023-02-28T00:49:39;99255.41;;;-0.66;100.00
2184;BME280;1098;48.940;8.962;2023-02-28T00:52:10;99244.09;;;-0.49;100.00
2184;BME280;1098;48.940;8.962;2023-02-28T00:54:38;99253.16;;;-0.52;100.00
2184;BME280;1098;48.940;8.962;2023-02-28T00:57:09;99256.78;;;-0.72;100.00
2184;BME280;1098;48.940;8.962;2023-02-28T00:59:37;99258.72;;;-0.74;100.00
2184;BME280;1098;48.940;8.962;2023-02-28T01:02:06;99266.22;;;-0.89;100.00
2184;BME280;1098;48.940;8.962;2023-02-28T01:04:36;99263.84;;;-0.92;100.00
2184;BME280;1098;48.940;8.962;2023-02-28T01:07:05;99253.13;;;-0.81;100.00
2184;BME280;1098;48.940;8.962;2023-02-28T01:09:35;99246.97;;;-0.91;100.00
2184;BME280;1098;48.940;8.962;2023-02-28T01:12:04;99252.25;;;-0.91;100.00
2184;BME280;1098;48.940;8.962;2023-02-28T01:14:33;99250.06;;;-0.76;100.00
2184;BME280;1098;48.940;8.962;2023-02-28T01:17:01;99247.53;;;-0.87;100.00
2184;BME280;1098;48.940;8.962;2023-02-28T01:19:31;99248.06;;;-0.93;100.00
2184;BME280;1098;48.940;8.962;2023-02-28T01:22:02;99251.44;;;-0.91;100.00
2184;BME280;1098;48.940;8.962;2023-02-28T01:24:31;99250.53;;;-1.01;100.00
2184;BME280;1098;48.940;8.962;2023-02-28T01:27:05;99246.28;;;-0.74;100.00
2184;BME280;1098;48.940;8.962;2023-02-28T01:29:33;99247.25;;;-0.84;100.00
2184;BME280;1098;48.940;8.962;2023-02-28T01:32:01;99247.88;;;-1.01;100.00
2184;BME280;1098;48.940;8.962;2023-02-28T01:34:30;99251.75;;;-0.75;100.00
2184;BME280;1098;48.940;8.962;2023-02-28T01:36:58;99248.03;;;-1.03;100.00
2184;BME280;1098;48.940;8.962;2023-02-28T01:39:27;99250.41;;;-1.00;100.00
2184;BME280;1098;48.940;8.962;2023-02-28T01:41:56;99246.13;;;-0.82;100.00
2184;BME280;1098;48.940;8.962;2023-02-28T01:45:01;99246.91;;;-1.00;100.00
2184;BME280;1098;48.940;8.962;2023-02-28T01:47:32;99243.84;;;-1.06;100.00
2184;BME280;1098;48.940;8.962;2023-02-28T01:50:05;99245.66;;;-1.06;100.00
2184;BME280;1098;48.940;8.962;2023-02-28T01:52:35;99250.97;;;-0.96;100.00
2184;BME280;1098;48.940;8.962;2023-02-28T01:55:05;99251.25;;;-0.99;100.00
2184;BME280;1098;48.940;8.962;2023-02-28T01:57:38;99249.41;;;-1.09;100.00
2184;BME280;1098;48.940;8.962;2023-02-28T02:00:12;99247.75;;;-1.10;100.00
2184;BME280;1098;48.940;8.962;2023-02-28T02:02:50;99244.25;;;-1.00;100.00
2184;BME280;1098;48.940;8.962;2023-02-28T02:05:21;99250.22;;;-1.18;100.00
2184;BME280;1098;48.940;8.962;2023-02-28T02:07:52;99215.75;;;-1.18;100.00
2184;BME280;1098;48.940;8.962;2023-02-28T02:10:29;99233.59;;;-1.20;100.00
2184;BME280;1098;48.940;8.962;2023-02-28T02:13:25;99233.44;;;-1.28;100.00
2184;BME280;1098;48.940;8.962;2023-02-28T02:16:04;99234.63;;;-1.11;100.00
2184;BME280;1098;48.940;8.962;2023-02-28T02:18:39;99219.19;;;-0.87;100.00
2184;BME280;1098;48.940;8.962;2023-02-28T02:21:54;99219.16;;;-0.96;100.00
2184;BME280;1098;48.940;8.962;2023-02-28T02:24:52;99212.91;;;-0.86;100.00
2184;BME280;1098;48.940;8.962;2023-02-28T02:27:46;99209.16;;;-0.83;100.00
2184;BME280;1098;48.940;8.962;2023-02-28T02:30:32;99218.75;;;-0.82;100.00
2184;BME280;1098;48.940;8.962;2023-02-28T02:33:30;99228.00;;;-0.86;100.00
2184;BME280;1098;48.940;8.962;2023-02-28T02:36:12;99215.00;;;-0.80;100.00
2184;BME280;1098;48.940;8.962;2023-02-28T02:38:48;99215.16;;;-0.72;100.00
2184;BME280;1098;48.940;8.962;2023-02-28T02:41:23;99216.09;;;-0.82;100.00
2184;BME280;1098;48.940;8.962;2023-02-28T02:44:01;99213.22;;;-0.70;100.00
2184;BME280;1098;48.940;8.962;2023-02-28T02:46:33;99207.63;;;-0.66;100.00
2184;BME280;1098;48.940;8.962;2023-02-28T02:49:04;99208.75;;;-0.50;100.00
2184;BME280;1098;48.940;8.962;2023-02-28T02:51:38;99215.69;;;-0.87;100.00
2184;BME280;1098;48.940;8.962;2023-02-28T02:54:11;99211.81;;;-0.83;100.00
2184;BME280;1098;48.940;8.962;2023-02-28T02:56:43;99217.25;;;-0.75;100.00
2184;BME280;1098;48.940;8.962;2023-02-28T02:59:17;99207.47;;;-0.75;100.00
2184;BME280;1098;48.940;8.962;2023-02-28T03:01:50;99208.69;;;-0.98;100.00
2184;BME280;1098;48.940;8.962;2023-02-28T03:04:22;99206.34;;;-0.91;100.00
2184;BME280;1098;48.940;8.962;2023-02-28T03:06:52;99208.59;;;-0.87;100.00
2184;BME280;1098;48.940;8.962;2023-02-28T03:09:22;99210.22;;;-1.05;100.00
2184;BME280;1098;48.940;8.962;2023-02-28T03:11:52;99215.81;;;-0.98;100.00
2184;BME280;1098;48.940;8.962;2023-02-28T03:14:34;99213.59;;;-0.93;100.00
2184;BME280;1098;48.940;8.962;2023-02-28T03:17:20;99212.34;;;-0.80;100.00
2184;BME280;1098;48.940;8.962;2023-02-28T03:19:59;99216.53;;;-0.87;100.00
2184;BME280;1098;48.940;8.962;2023-02-28T03:22:45;99216.56;;;-0.67;100.00
2184;BME280;1098;48.940;8.962;2023-02-28T03:25:20;99217.38;;;-0.77;100.00
2184;BME280;1098;48.940;8.962;2023-02-28T03:27:59;99206.06;;;-0.79;100.00
2184;BME280;1098;48.940;8.962;2023-02-28T03:30:35;99219.06;;;-0.85;100.00
2184;BME280;1098;48.940;8.962;2023-02-28T03:33:09;99214.75;;;-0.57;100.00
2184;BME280;1098;48.940;8.962;2023-02-28T03:35:42;99224.38;;;-0.76;100.00
2184;BME280;1098;48.940;8.962;2023-02-28T03:38:16;99217.41;;;-0.67;100.00
2184;BME280;1098;48.940;8.962;2023-02-28T03:40:49;99219.09;;;-0.66;100.00
2184;BME280;1098;48.940;8.962;2023-02-28T03:43:24;99216.81;;;-0.80;100.00
2184;BME280;1098;48.940;8.962;2023-02-28T03:45:56;99213.78;;;-0.56;100.00
2184;BME280;1098;48.940;8.962;2023-02-28T03:48:30;99221.31;;;-0.71;100.00
2184;BME280;1098;48.940;8.962;2023-02-28T03:51:05;99219.09;;;-0.66;100.00
2184;BME280;1098;48.940;8.962;2023-02-28T03:53:42;99217.25;;;-0.75;100.00
2184;BME280;1098;48.940;8.962;2023-02-28T03:56:17;99203.13;;;-0.76;100.00
2184;BME280;1098;48.940;8.962;2023-02-28T03:58:50;99212.38;;;-0.60;100.00
2184;BME280;1098;48.940;8.962;2023-02-28T04:01:22;99209.56;;;-0.59;100.00
2184;BME280;1098;48.940;8.962;2023-02-28T04:03:54;99186.38;;;-0.76;100.00
2184;BME280;1098;48.940;8.962;2023-02-28T04:06:23;99212.09;;;-0.57;100.00
2184;BME280;1098;48.940;8.962;2023-02-28T04:08:53;99206.25;;;-0.51;100.00
2184;BME280;1098;48.940;8.962;2023-02-28T04:11:25;99221.16;;;-0.70;100.00
2184;BME280;1098;48.940;8.962;2023-02-28T04:13:56;99210.84;;;-0.63;100.00
2184;BME280;1098;48.940;8.962;2023-02-28T04:16:24;99217.00;;;-0.62;100.00
2184;BME280;1098;48.940;8.962;2023-02-28T04:19:02;99225.22;;;-0.56;100.00
2184;BME280;1098;48.940;8.962;2023-02-28T04:21:34;99212.81;;;-0.46;100.00
2184;BME280;1098;48.940;8.962;2023-02-28T04:24:05;99221.75;;;-0.47;100.00
2184;BME280;1098;48.940;8.962;2023-02-28T04:26:35;99228.81;;;-0.76;100.00
2184;BME280;1098;48.940;8.962;2023-02-28T04:29:06;99227.19;;;-0.58;100.00
2184;BME280;1098;48.940;8.962;2023-02-28T04:31:35;99222.31;;;-0.62;100.00
2184;BME280;1098;48.940;8.962;2023-02-28T04:34:06;99228.41;;;-0.62;100.00
2184;BME280;1098;48.940;8.962;2023-02-28T04:36:35;99212.38;;;-0.51;100.00
2184;BME280;1098;48.940;8.962;2023-02-28T04:39:05;99223.94;;;-0.61;100.00
2184;BME280;1098;48.940;8.962;2023-02-28T04:41:33;99211.69;;;-0.43;100.00
2184;BME280;1098;48.940;8.962;2023-02-28T04:44:02;99212.47;;;0.15;100.00
2184;BME280;1098;48.940;8.962;2023-02-28T04:46:30;99212.09;;;-0.57;100.00
2184;BME280;1098;48.940;8.962;2023-02-28T04:48:58;99201.75;;;-0.51;100.00
2184;BME280;1098;48.940;8.962;2023-02-28T04:51:27;99213.63;;;-0.74;100.00
2184;BME280;1098;48.940;8.962;2023-02-28T04:53:56;99204.69;;;-0.54;100.00
2184;BME280;1098;48.940;8.962;2023-02-28T04:56:26;99210.44;;;-0.49;100.00
2184;BME280;1098;48.940;8.962;2023-02-28T04:58:54;99203.28;;;-0.39;100.00
2184;BME280;1098;48.940;8.962;2023-02-28T05:01:25;99214.91;;;-0.30;100.00
2184;BME280;1098;48.940;8.962;2023-02-28T05:03:56;99212.38;;;-0.41;100.00
2184;BME280;1098;48.940;8.962;2023-02-28T05:06:27;99231.25;;;-0.54;100.00
2184;BME280;1098;48.940;8.962;2023-02-28T05:08:55;99214.19;;;-0.32;100.00
2184;BME280;1098;48.940;8.962;2023-02-28T05:11:27;99220.91;;;-0.38;100.00
2184;BME280;1098;48.940;8.962;2023-02-28T05:13:59;99216.88;;;-0.42;100.00
2184;BME280;1098;48.940;8.962;2023-02-28T05:16:27;99221.34;;;-0.42;100.00
2184;BME280;1098;48.940;8.962;2023-02-28T05:18:55;99214.34;;;-0.43;100.00
2184;BME280;1098;48.940;8.962;2023-02-28T05:21:27;99201.75;;;-0.31;100.00
2184;BME280;1098;48.940;8.962;2023-02-28T05:23:58;99222.44;;;-0.25;100.00
2184;BME280;1098;48.940;8.962;2023-02-28T05:26:33;99222.19;;;-0.22;100.00
2184;BME280;1098;48.940;8.962;2023-02-28T05:29:02;99225.38;;;-0.28;100.00
2184;BME280;1098;48.940;8.962;2023-02-28T05:31:30;99227.19;;;-0.19;100.00
2184;BME280;1098;48.940;8.962;2023-02-28T05:34:02;99232.63;;;-0.11;100.00
2184;BME280;1098;48.940;8.962;2023-02-28T05:36:32;99230.25;;;-0.33;100.00
2184;BME280;1098;48.940;8.962;2023-02-28T05:39:02;99229.69;;;-0.08;100.00
2184;BME280;1098;48.940;8.962;2023-02-28T05:41:32;99231.41;;;-0.26;100.00
2184;BME280;1098;48.940;8.962;2023-02-28T05:44:03;99227.03;;;-0.08;100.00
2184;BME280;1098;48.940;8.962;2023-02-28T05:46:31;99236.13;;;-0.20;100.00
2184;BME280;1098;48.940;8.962;2023-02-28T05:49:00;99232.59;;;0.08;100.00
2184;BME280;1098;48.940;8.962;2023-02-28T05:51:28;99235.84;;;-0.08;100.00
2184;BME280;1098;48.940;8.962;2023-02-28T05:54:01;99230.50;;;0.02;100.00
2184;BME280;1098;48.940;8.962;2023-02-28T05:56:29;99233.91;;;-0.15;100.00
2184;BME280;1098;48.940;8.962;2023-02-28T05:58:59;99239.63;;;-0.01;100.00
2184;BME280;1098;48.940;8.962;2023-02-28T06:01:33;99240.03;;;0.14;100.00
2184;BME280;1098;48.940;8.962;2023-02-28T06:04:03;99233.47;;;-0.01;100.00
2184;BME280;1098;48.940;8.962;2023-02-28T06:06:31;99206.63;;;-0.17;100.00
2184;BME280;1098;48.940;8.962;2023-02-28T06:09:03;99232.19;;;0.03;100.00
2184;BME280;1098;48.940;8.962;2023-02-28T06:11:32;99235.97;;;0.10;100.00
2184;BME280;1098;48.940;8.962;2023-02-28T06:14:03;99239.06;;;-0.14;100.00
2184;BME280;1098;48.940;8.962;2023-02-28T06:16:34;99238.91;;;0.17;100.00
2184;BME280;1098;48.940;8.962;2023-02-28T06:19:03;99233.00;;;0.23;100.00
2184;BME280;1098;48.940;8.962;2023-02-28T06:21:32;99235.56;;;0.05;100.00
2184;BME280;1098;48.940;8.962;2023-02-28T06:24:00;99231.31;;;0.22;100.00
2184;BME280;1098;48.940;8.962;2023-02-28T06:26:29;99243.09;;;0.19;100.00
2184;BME280;1098;48.940;8.962;2023-02-28T06:28:58;99242.25;;;0.19;100.00
2184;BME280;1098;48.940;8.962;2023-02-28T06:31:31;99249.09;;;0.21;100.00
2184;BME280;1098;48.940;8.962;2023-02-28T06:34:00;99248.25;;;0.21;100.00
2184;BME280;1098;48.940;8.962;2023-02-28T06:36:29;99248.13;;;0.13;100.00
2184;BME280;1098;48.940;8.962;2023-02-28T06:38:57;99250.63;;;0.33;100.00
2184;BME280;1098;48.940;8.962;2023-02-28T06:41:26;99248.09;;;0.22;100.00
2184;BME280;1098;48.940;8.962;2023-02-28T06:43:55;99259.00;;;0.29;100.00
2184;BME280;1098;48.940;8.962;2023-02-28T06:46:24;99251.75;;;0.02;100.00
2184;BME280;1098;48.940;8.962;2023-02-28T06:48:53;99265.19;;;0.10;100.00
2184;BME280;1098;48.940;8.962;2023-02-28T06:51:22;99265.50;;;-0.03;100.00
2184;BME280;1098;48.940;8.962;2023-02-28T06:53:51;99272.34;;;-0.10;100.00
2184;BME280;1098;48.940;8.962;2023-02-28T06:56:20;99260.75;;;-0.09;100.00
2184;BME280;1098;48.940;8.962;2023-02-28T06:58:49;99275.81;;;0.00;100.00
2184;BME280;1098;48.940;8.962;2023-02-28T07:01:20;99271.50;;;0.09;100.00
2184;BME280;1098;48.940;8.962;2023-02-28T07:03:50;99271.88;;;0.24;100.00
2184;BME280;1098;48.940;8.962;2023-02-28T07:06:21;99277.91;;;0.07;100.00
2184;BME280;1098;48.940;8.962;2023-02-28T07:08:51;99284.47;;;0.03;100.00
2184;BME280;1098;48.940;8.962;2023-02-28T07:11:20;99286.16;;;0.13;100.00
2184;BME280;1098;48.940;8.962;2023-02-28T07:13:50;99294.56;;;-0.11;100.00
2184;BME280;1098;48.940;8.962;2023-02-28T07:16:18;99292.75;;;-0.10;100.00
2184;BME280;1098;48.940;8.962;2023-02-28T07:18:47;99275.97;;;-0.01;100.00
2184;BME280;1098;48.940;8.962;2023-02-28T07:21:15;99284.22;;;0.15;100.00
2184;BME280;1098;48.940;8.962;2023-02-28T07:23:45;99286.16;;;0.04;100.00
2184;BME280;1098;48.940;8.962;2023-02-28T07:26:16;99299.16;;;-0.13;100.00
2184;BME280;1098;48.940;8.962;2023-02-28T07:28:47;99285.59;;;0.29;100.00
2184;BME280;1098;48.940;8.962;2023-02-28T07:31:19;99286.47;;;0.20;100.00
2184;BME280;1098;48.940;8.962;2023-02-28T07:33:47;99295.25;;;0.01;100.00
2184;BME280;1098;48.940;8.962;2023-02-28T07:36:17;99284.94;;;-0.02;100.00
2184;BME280;1098;48.940;8.962;2023-02-28T07:38:48;99293.44;;;0.11;100.00
2184;BME280;1098;48.940;8.962;2023-02-28T07:41:19;99296.75;;;0.42;100.00
2184;BME280;1098;48.940;8.962;2023-02-28T07:43:48;99293.03;;;0.06;100.00
2184;BME280;1098;48.940;8.962;2023-02-28T07:46:18;99300.72;;;0.09;100.00
2184;BME280;1098;48.940;8.962;2023-02-28T07:48:50;99287.56;;;0.17;100.00
2184;BME280;1098;48.940;8.962;2023-02-28T07:51:19;99299.25;;;0.44;100.00
2184;BME280;1098;48.940;8.962;2023-02-28T07:53:49;99305.03;;;0.39;100.00
2184;BME280;1098;48.940;8.962;2023-02-28T07:56:17;99296.31;;;0.47;100.00
2184;BME280;1098;48.940;8.962;2023-02-28T07:58:46;99301.78;;;0.55;100.00
2184;BME280;1098;48.940;8.962;2023-02-28T08:01:14;99299.47;;;0.79;100.00
2184;BME280;1098;48.940;8.962;2023-02-28T08:03:43;99294.75;;;0.63;100.00
2184;BME280;1098;48.940;8.962;2023-02-28T08:06:16;99285.59;;;0.29;100.00
2184;BME280;1098;48.940;8.962;2023-02-28T08:08:45;99310.88;;;0.43;100.00
2184;BME280;1098;48.940;8.962;2023-02-28T08:11:15;99303.31;;;0.48;100.00
2184;BME280;1098;48.940;8.962;2023-02-28T08:13:44;99294.47;;;0.66;100.00
2184;BME280;1098;48.940;8.962;2023-02-28T08:16:13;99308.88;;;0.64;100.00
2184;BME280;1098;48.940;8.962;2023-02-28T08:18:44;99305.28;;;0.92;100.00
2184;BME280;1098;48.940;8.962;2023-02-28T08:21:13;99312.16;;;0.95;100.00
2184;BME280;1098;48.940;8.962;2023-02-28T08:23:41;99315.44;;;0.79;100.00
2184;BME280;1098;48.940;8.962;2023-02-28T08:26:12;99312.28;;;0.93;100.00
2184;BME280;1098;48.940;8.962;2023-02-28T08:28:42;99320.38;;;0.55;100.00
2184;BME280;1098;48.940;8.962;2023-02-28T08:31:14;99326.16;;;0.87;100.00
2184;BME280;1098;48.940;8.962;2023-02-28T08:33:43;99312.94;;;0.68;100.00
2184;BME280;1098;48.940;8.962;2023-02-28T08:36:13;99309.00;;;0.82;100.00
2184;BME280;1098;48.940;8.962;2023-02-28T08:38:42;99293.00;;;1.19;100.00
2184;BME280;1098;48.940;8.962;2023-02-28T08:41:12;99314.69;;;0.87;100.00
2184;BME280;1098;48.940;8.962;2023-02-28T08:43:42;99298.56;;;0.98;100.00
2184;BME280;1098;48.940;8.962;2023-02-28T08:46:11;99316.22;;;0.89;100.00
2184;BME280;1098;48.940;8.962;2023-02-28T08:48:41;99314.09;;;1.30;100.00
2184;BME280;1098;48.940;8.962;2023-02-28T08:51:11;99319.09;;;1.06;100.00
2184;BME280;1098;48.940;8.962;2023-02-28T08:53:40;99317.88;;;1.00;100.00
2184;BME280;1098;48.940;8.962;2023-02-28T08:56:11;99325.53;;;1.40;100.00
2184;BME280;1098;48.940;8.962;2023-02-28T08:58:39;99313.06;;;1.41;100.00
2184;BME280;1098;48.940;8.962;2023-02-28T09:01:11;99319.28;;;1.31;100.00
2184;BME280;1098;48.940;8.962;2023-02-28T09:03:41;99312.38;;;1.38;100.00
2184;BME280;1098;48.940;8.962;2023-02-28T09:06:13;99328.13;;;1.50;100.00
2184;BME280;1098;48.940;8.962;2023-02-28T09:08:45;99317.31;;;2.14;100.00
2184;BME280;1098;48.940;8.962;2023-02-28T09:11:16;99321.94;;;1.77;100.00
2184;BME280;1098;48.940;8.962;2023-02-28T09:13:46;99326.16;;;1.79;100.00
2184;BME280;1098;48.940;8.962;2023-02-28T09:16:17;99321.41;;;1.91;100.00
2184;BME280;1098;48.940;8.962;2023-02-28T09:18:50;99323.94;;;2.10;100.00
2184;BME280;1098;48.940;8.962;2023-02-28T09:21:21;99304.00;;;2.14;100.00
2184;BME280;1098;48.940;8.962;2023-02-28T09:23:50;99319.75;;;2.43;100.00
2184;BME280;1098;48.940;8.962;2023-02-28T09:26:21;99314.06;;;2.20;100.00
2184;BME280;1098;48.940;8.962;2023-02-28T09:28:51;99323.94;;;2.10;100.00
2184;BME280;1098;48.940;8.962;2023-02-28T09:31:22;99320.38;;;2.01;100.00
2184;BME280;1098;48.940;8.962;2023-02-28T09:33:52;99322.59;;;2.50;100.00
2184;BME280;1098;48.940;8.962;2023-02-28T09:36:22;99320.75;;;2.24;100.00
2184;BME280;1098;48.940;8.962;2023-02-28T09:38:57;99330.03;;;2.38;100.00
2184;BME280;1098;48.940;8.962;2023-02-28T09:41:37;99338.09;;;2.11;100.00
2184;BME280;1098;48.940;8.962;2023-02-28T09:44:19;99329.34;;;2.80;100.00
2184;BME280;1098;48.940;8.962;2023-02-28T09:46:55;99330.03;;;2.20;100.00
2184;BME280;1098;48.940;8.962;2023-02-28T09:49:33;99326.81;;;2.34;100.00
2184;BME280;1098;48.940;8.962;2023-02-28T09:52:07;99329.28;;;2.97;100.00
2184;BME280;1098;48.940;8.962;2023-02-28T09:54:37;99339.16;;;2.79;100.00
2184;BME280;1098;48.940;8.962;2023-02-28T09:57:13;99323.63;;;2.49;100.00
2184;BME280;1098;48.940;8.962;2023-02-28T09:59:56;99316.09;;;2.96;100.00
2184;BME280;1098;48.940;8.962;2023-02-28T10:02:41;99334.94;;;2.68;100.00
2184;BME280;1098;48.940;8.962;2023-02-28T10:05:16;99335.09;;;2.67;100.00
2184;BME280;1098;48.940;8.962;2023-02-28T10:07:59;99343.16;;;3.35;100.00
2184;BME280;1098;48.940;8.962;2023-02-28T10:10:32;99328.72;;;3.12;100.00
2184;BME280;1098;48.940;8.962;2023-02-28T10:13:05;99330.16;;;2.80;100.00
2184;BME280;1098;48.940;8.962;2023-02-28T10:15:36;99336.44;;;3.23;100.00
2184;BME280;1098;48.940;8.962;2023-02-28T10:18:15;99336.13;;;3.34;100.00
2184;BME280;1098;48.940;8.962;2023-02-28T10:20:49;99339.63;;;2.49;100.00
2184;BME280;1098;48.940;8.962;2023-02-28T10:23:21;99332.28;;;3.28;100.00
2184;BME280;1098;48.940;8.962;2023-02-28T10:25:55;99345.66;;;3.36;100.00
2184;BME280;1098;48.940;8.962;2023-02-28T10:28:26;99339.72;;;3.17;100.00
2184;BME280;1098;48.940;8.962;2023-02-28T10:30:56;99339.34;;;3.96;100.00
2184;BME280;1098;48.940;8.962;2023-02-28T10:33:31;99342.38;;;4.17;100.00
2184;BME280;1098;48.940;8.962;2023-02-28T10:36:02;99346.41;;;4.05;100.00
2184;BME280;1098;48.940;8.962;2023-02-28T10:38:34;99344.88;;;3.94;100.00
2184;BME280;1098;48.940;8.962;2023-02-28T10:41:07;99341.06;;;4.21;100.00
2184;BME280;1098;48.940;8.962;2023-02-28T10:43:37;99337.38;;;3.14;100.00
2184;BME280;1098;48.940;8.962;2023-02-28T10:46:12;99339.63;;;3.76;100.00
2184;BME280;1098;48.940;8.962;2023-02-28T10:48:51;99341.84;;;3.89;100.00
2184;BME280;1098;48.940;8.962;2023-02-28T10:51:25;99332.53;;;4.18;100.00
2184;BME280;1098;48.940;8.962;2023-02-28T10:54:02;99340.09;;;4.30;100.00
2184;BME280;1098;48.940;8.962;2023-02-28T10:56:36;99344.91;;;3.52;100.00
2184;BME280;1098;48.940;8.962;2023-02-28T10:59:28;99350.47;;;3.25;100.00
2184;BME280;1098;48.940;8.962;2023-02-28T11:01:57;99338.34;;;5.10;100.00
2184;BME280;1098;48.940;8.962;2023-02-28T11:04:37;99326.66;;;4.95;100.00
2184;BME280;1098;48.940;8.962;2023-02-28T11:07:19;99314.63;;;4.02;100.00
2184;BME280;1098;48.940;8.962;2023-02-28T11:09:52;99326.19;;;4.19;100.00
2184;BME280;1098;48.940;8.962;2023-02-28T11:12:23;99315.00;;;4.56;100.00
2184;BME280;1098;48.940;8.962;2023-02-28T11:14:56;99323.31;;;4.93;100.00
2184;BME280;1098;48.940;8.962;2023-02-28T11:17:27;99326.50;;;4.97;100.00
2184;BME280;1098;48.940;8.962;2023-02-28T11:19:59;99316.06;;;5.18;100.00
2184;BME280;1098;48.940;8.962;2023-02-28T11:22:32;99318.69;;;4.55;100.00
2184;BME280;1098;48.940;8.962;2023-02-28T11:25:08;99312.69;;;4.36;100.00
2184;BME280;1098;48.940;8.962;2023-02-28T11:27:46;99306.19;;;5.58;100.00
2184;BME280;1098;48.940;8.962;2023-02-28T11:30:28;99291.63;;;5.91;100.00
2184;BME280;1098;48.940;8.962;2023-02-28T11:32:57;99304.84;;;5.14;100.00
2184;BME280;1098;48.940;8.962;2023-02-28T11:35:31;99276.09;;;5.00;100.00
2184;BME280;1098;48.940;8.962;2023-02-28T11:38:05;99304.53;;;5.01;100.00
2184;BME280;1098;48.940;8.962;2023-02-28T11:40:43;99306.03;;;5.51;100.00
2184;BME280;1098;48.940;8.962;2023-02-28T11:43:26;99308.56;;;5.05;100.00
2184;BME280;1098;48.940;8.962;2023-02-28T11:46:06;99294.91;;;6.01;100.00
2184;BME280;1098;48.940;8.962;2023-02-28T11:48:44;99303.34;;;5.90;100.00
2184;BME280;1098;48.940;8.962;2023-02-28T11:51:21;99301.19;;;5.07;100.00
2184;BME280;1098;48.940;8.962;2023-02-28T11:54:02;99299.88;;;5.81;100.00
2184;BME280;1098;48.940;8.962;2023-02-28T11:56:33;99297.91;;;5.36;100.00
2184;BME280;1098;48.940;8.962;2023-02-28T11:59:27;99292.78;;;5.89;99.99
2184;BME280;1098;48.940;8.962;2023-02-28T12:02:25;99291.63;;;5.83;100.00
2184;BME280;1098;48.940;8.962;2023-02-28T12:05:09;99289.75;;;5.22;100.00
2184;BME280;1098;48.940;8.962;2023-02-28T12:07:47;99298.34;;;6.10;100.00
2184;BME280;1098;48.940;8.962;2023-02-28T12:10:23;99294.25;;;5.21;100.00
2184;BME280;1098;48.940;8.962;2023-02-28T12:13:05;99287.28;;;5.51;100.00
2184;BME280;1098;48.940;8.962;2023-02-28T12:18:50;99294.22;;;5.37;100.00
2184;BME280;1098;48.940;8.962;2023-02-28T12:21:31;99289.34;;;5.72;100.00
2184;BME280;1098;48.940;8.962;2023-02-28T12:24:26;99285.38;;;5.99;100.00
2184;BME280;1098;48.940;8.962;2023-02-28T12:27:02;99271.00;;;5.61;99.88
2184;BME280;1098;48.940;8.962;2023-02-28T12:29:40;99283.94;;;5.49;100.00
2184;BME280;1098;48.940;8.962;2023-02-28T12:32:15;99285.88;;;5.32;99.93
2184;BME280;1098;48.940;8.962;2023-02-28T12:34:47;99285.78;;;5.48;100.00
2184;BME280;1098;48.940;8.962;2023-02-28T12:37:24;99281.03;;;5.98;100.00
2184;BME280;1098;48.940;8.962;2023-02-28T12:40:00;99275.34;;;5.93;98.69
2184;BME280;1098;48.940;8.962;2023-02-28T12:42:34;99255.47;;;5.48;100.00
2184;BME280;1098;48.940;8.962;2023-02-28T12:45:09;99270.22;;;5.75;100.00
2184;BME280;1098;48.940;8.962;2023-02-28T12:47:40;99250.66;;;6.58;95.80
2184;BME280;1098;48.940;8.962;2023-02-28T12:50:11;99258.91;;;5.96;100.00
2184;BME280;1098;48.940;8.962;2023-02-28T12:52:46;99251.88;;;5.25;100.00
2184;BME280;1098;48.940;8.962;2023-02-28T12:55:21;99252.59;;;5.18;100.00
2184;BME280;1098;48.940;8.962;2023-02-28T12:57:58;99261.72;;;4.93;100.00
2184;BME280;1098;48.940;8.962;2023-02-28T13:00:35;99252.63;;;5.49;100.00
2184;BME280;1098;48.940;8.962;2023-02-28T13:03:24;99264.53;;;5.08;100.00
2184;BME280;1098;48.940;8.962;2023-02-28T13:06:20;99253.41;;;5.89;100.00
2184;BME280;1098;48.940;8.962;2023-02-28T13:09:04;99251.59;;;5.50;99.59
2184;BME280;1098;48.940;8.962;2023-02-28T13:11:41;99238.97;;;6.13;98.76
2184;BME280;1098;48.940;8.962;2023-02-28T13:14:21;99234.38;;;5.45;100.00
2184;BME280;1098;48.940;8.962;2023-02-28T13:16:55;99255.91;;;5.82;100.00
2184;BME280;1098;48.940;8.962;2023-02-28T13:19:26;99243.03;;;5.55;100.00
2184;BME280;1098;48.940;8.962;2023-02-28T13:21:57;99242.69;;;6.12;100.00
2184;BME280;1098;48.940;8.962;2023-02-28T13:24:43;99251.75;;;5.57;100.00
2184;BME280;1098;48.940;8.962;2023-02-28T13:27:32;99239.50;;;6.08;100.00
2184;BME280;1098;48.940;8.962;2023-02-28T13:33:26;99243.06;;;5.47;100.00
2184;BME280;1098;48.940;8.962;2023-02-28T13:36:10;99239.94;;;5.97;100.00
2184;BME280;1098;48.940;8.962;2023-02-28T13:38:51;99240.28;;;6.17;100.00
2184;BME280;1098;48.940;8.962;2023-02-28T13:41:46;99233.00;;;6.03;100.00
2184;BME280;1098;48.940;8.962;2023-02-28T13:44:19;99257.19;;;5.72;100.00
2184;BME280;1098;48.940;8.962;2023-02-28T13:50:21;99243.03;;;6.09;99.51
2184;BME280;1098;48.940;8.962;2023-02-28T13:55:45;99237.25;;;5.66;100.00
2184;BME280;1098;48.940;8.962;2023-02-28T13:58:37;99247.56;;;6.46;100.00
2184;BME280;1098;48.940;8.962;2023-02-28T14:01:29;99245.94;;;5.76;100.00
2184;BME280;1098;48.940;8.962;2023-02-28T14:04:18;99242.69;;;6.12;100.00